createdAt,value
2022-12-14T00:01:55.505Z,97326.43
2022-12-14T00:04:23.013Z,97327.37
2022-12-14T00:06:52.098Z,97330.09
2022-12-14T00:09:20.296Z,97326.91
2022-12-14T00:11:49.877Z,97333.59
2022-12-14T00:14:17.722Z,97336.11
2022-12-14T00:16:45.529Z,97338.92
2022-12-14T00:19:13.889Z,97334.44
2022-12-14T00:21:41.763Z,97336.77
2022-12-14T00:24:09.988Z,97337.47
2022-12-14T00:26:38.117Z,97340.50
2022-12-14T00:29:05.845Z,97343.13
2022-12-14T00:31:33.629Z,97349.37
2022-12-14T00:34:01.701Z,97347.84
2022-12-14T00:36:30.910Z,97345.45
2022-12-14T00:38:58.663Z,97340.22
2022-12-14T00:41:26.506Z,97338.41
2022-12-14T00:43:55.229Z,97335.28
2022-12-14T00:46:23.015Z,97331.36
2022-12-14T00:48:50.585Z,97331.07
2022-12-14T00:51:18.726Z,97321.64
2022-12-14T00:53:46.754Z,97331.27
2022-12-14T00:56:14.409Z,97326.04
2022-12-14T00:58:42.184Z,97332.00
2022-12-14T01:01:15.400Z,97329.81
2022-12-14T01:03:43.297Z,97322.39
2022-12-14T01:06:22.808Z,97334.86
2022-12-14T01:08:50.643Z,97338.41
2022-12-14T01:11:18.816Z,97333.63
2022-12-14T01:13:49.385Z,97330.41
2022-12-14T01:16:18.128Z,97328.50
2022-12-14T01:18:46.027Z,97329.02
2022-12-14T01:21:20.381Z,97327.70
2022-12-14T01:23:55.084Z,97331.34
2022-12-14T01:26:25.190Z,97321.91
2022-12-14T01:28:56.951Z,97315.52
2022-12-14T01:31:29.251Z,97314.62
2022-12-14T01:33:57.218Z,97311.70
2022-12-14T01:36:31.554Z,97308.00
2022-12-14T01:39:04.850Z,97308.70
2022-12-14T01:41:52.495Z,97305.72
2022-12-14T01:44:25.645Z,97303.05
2022-12-14T01:47:12.245Z,97294.22
2022-12-14T01:49:47.416Z,97296.75
2022-12-14T01:52:26.240Z,97302.19
2022-12-14T01:55:02.717Z,97300.09
2022-12-14T01:57:38.975Z,97303.31
2022-12-14T02:00:10.323Z,97302.45
2022-12-14T02:02:41.633Z,97303.34
2022-12-14T02:05:11.827Z,97299.88
2022-12-14T02:07:43.411Z,97300.06
2022-12-14T02:10:13.081Z,97308.70
2022-12-14T02:12:48.479Z,97316.02
2022-12-14T02:15:17.037Z,97316.12
2022-12-14T02:17:47.219Z,97322.36
2022-12-14T02:20:16.425Z,97321.62
2022-12-14T02:23:23.262Z,97317.64
2022-12-14T02:26:12.999Z,97314.72
2022-12-14T02:29:21.443Z,97314.81
2022-12-14T02:32:17.356Z,97308.98
2022-12-14T02:34:54.561Z,97306.53
2022-12-14T02:37:44.261Z,97313.95
2022-12-14T02:41:12.418Z,97311.33
2022-12-14T02:44:03.949Z,97307.92
2022-12-14T02:47:02.402Z,97310.54
2022-12-14T02:50:05.793Z,97317.27
2022-12-14T02:52:38.925Z,97313.15
2022-12-14T02:55:30.068Z,97310.03
2022-12-14T02:58:18.114Z,97314.23
2022-12-14T03:00:48.301Z,97307.52
2022-12-14T03:03:16.505Z,97309.61
2022-12-14T03:05:57.233Z,97305.89
2022-12-14T03:08:28.812Z,97306.81
2022-12-14T03:11:05.733Z,97304.94
2022-12-14T03:13:38.843Z,97307.17
2022-12-14T03:16:16.601Z,97310.58
2022-12-14T03:19:04.756Z,97303.25
2022-12-14T03:21:37.594Z,97299.62
2022-12-14T03:24:09.757Z,97304.23
2022-12-14T03:26:50.784Z,97299.02
2022-12-14T03:29:32.717Z,97293.41
2022-12-14T03:32:05.720Z,97297.74
2022-12-14T03:34:37.912Z,97300.58
2022-12-14T03:37:41.384Z,97298.67
2022-12-14T03:40:13.447Z,97303.70
2022-12-14T03:43:16.770Z,97299.27
2022-12-14T03:46:17.418Z,97293.34
2022-12-14T03:48:52.321Z,97286.09
2022-12-14T03:51:37.650Z,97281.98
2022-12-14T03:54:16.696Z,97273.83
2022-12-14T03:56:58.777Z,97247.97
2022-12-14T03:59:47.053Z,97272.48
2022-12-14T04:02:34.021Z,97271.27
2022-12-14T04:05:29.080Z,97274.95
2022-12-14T04:08:08.769Z,97270.34
2022-12-14T04:11:02.863Z,97271.73
2022-12-14T04:13:59.659Z,97264.41
2022-12-14T04:16:53.031Z,97260.77
2022-12-14T04:19:26.210Z,97255.92
2022-12-14T04:22:04.659Z,97257.33
2022-12-14T04:25:05.409Z,97253.69
2022-12-14T04:27:55.476Z,97250.85
2022-12-14T04:30:23.416Z,97249.03
2022-12-14T04:33:04.022Z,97248.93
2022-12-14T04:35:41.372Z,97239.36
2022-12-14T04:38:23.129Z,97241.75
2022-12-14T04:40:57.862Z,97242.55
2022-12-14T04:43:30.119Z,97244.13
2022-12-14T04:46:08.164Z,97238.91
2022-12-14T04:49:11.867Z,97231.52
2022-12-14T04:52:21.691Z,97237.73
2022-12-14T04:55:00.433Z,97236.95
2022-12-14T04:57:50.182Z,97237.83
2022-12-14T05:00:18.049Z,97242.03
2022-12-14T05:03:18.790Z,97243.66
2022-12-14T05:06:15.953Z,97249.25
2022-12-14T05:09:17.973Z,97242.27
2022-12-14T05:12:09.119Z,97246.08
2022-12-14T05:14:52.650Z,97245.62
2022-12-14T05:17:20.677Z,97248.13
2022-12-14T05:19:51.318Z,97245.52
2022-12-14T05:22:19.874Z,97238.47
2022-12-14T05:24:51.554Z,97225.59
2022-12-14T05:27:19.720Z,97242.25
2022-12-14T05:29:48.219Z,97245.23
2022-12-14T05:32:17.115Z,97252.64
2022-12-14T05:34:46.051Z,97250.12
2022-12-14T05:37:18.446Z,97256.34
2022-12-14T05:39:46.059Z,97256.34
2022-12-14T05:42:17.823Z,97255.34
2022-12-14T05:44:48.608Z,97257.95
2022-12-14T05:47:17.917Z,97259.97
2022-12-14T05:49:49.283Z,97255.69
2022-12-14T05:52:20.845Z,97250.09
2022-12-14T05:54:48.830Z,97257.33
2022-12-14T05:57:16.993Z,97254.94
2022-12-14T05:59:45.068Z,97261.90
2022-12-14T06:02:14.504Z,97264.80
2022-12-14T06:04:43.768Z,97264.52
2022-12-14T06:07:12.294Z,97263.72
2022-12-14T06:09:41.417Z,97262.61
2022-12-14T06:12:10.458Z,97261.90
2022-12-14T06:14:38.540Z,97261.42
2022-12-14T06:17:07.392Z,97265.13
2022-12-14T06:19:37.425Z,97270.93
2022-12-14T06:22:05.099Z,97261.77
2022-12-14T06:24:34.888Z,97268.16
2022-12-14T06:27:03.310Z,97270.11
2022-12-14T06:29:31.471Z,97267.32
2022-12-14T06:32:04.268Z,97267.73
2022-12-14T06:34:38.098Z,97274.92
2022-12-14T06:37:03.378Z,97276.44
2022-12-14T06:39:31.861Z,97279.11
2022-12-14T06:41:59.376Z,97275.91
2022-12-14T06:44:29.925Z,97270.07
2022-12-14T06:46:58.007Z,97275.66
2022-12-14T06:49:26.050Z,97274.05
2022-12-14T06:51:54.479Z,97274.23
2022-12-14T06:54:24.742Z,97272.71
2022-12-14T06:56:53.408Z,97270.18
2022-12-14T06:59:22.671Z,97266.39
2022-12-14T07:01:50.564Z,97262.77
2022-12-14T07:04:20.746Z,97264.60
2022-12-14T07:06:50.661Z,97259.81
2022-12-14T07:09:20.805Z,97262.34
2022-12-14T07:11:51.009Z,97258.77
2022-12-14T07:14:18.863Z,97257.14
2022-12-14T07:16:48.776Z,97262.13
2022-12-14T07:19:18.516Z,97266.18
2022-12-14T07:21:47.588Z,97254.23
2022-12-14T07:24:16.307Z,97255.55
2022-12-14T07:26:45.088Z,97248.81
2022-12-14T07:29:15.780Z,97252.03
2022-12-14T07:31:44.471Z,97254.39
2022-12-14T07:34:15.060Z,97252.03
2022-12-14T07:36:43.519Z,97241.02
2022-12-14T07:39:15.097Z,97243.13
2022-12-14T07:41:46.643Z,97248.72
2022-12-14T07:44:17.154Z,97230.08
2022-12-14T07:46:45.181Z,97252.28
2022-12-14T07:49:13.071Z,97246.87
2022-12-14T07:51:46.131Z,97259.02
2022-12-14T07:54:14.601Z,97247.60
2022-12-14T07:56:43.809Z,97243.38
2022-12-14T07:59:15.695Z,97246.50
2022-12-14T08:01:45.985Z,97248.78
2022-12-14T08:04:20.022Z,97255.42
2022-12-14T08:06:51.487Z,97260.47
2022-12-14T08:09:19.697Z,97257.09
2022-12-14T08:11:47.543Z,97247.88
2022-12-14T08:14:18.566Z,97244.17
2022-12-14T08:16:48.705Z,97233.67
2022-12-14T08:19:17.713Z,97238.56
2022-12-14T08:21:45.636Z,97235.84
2022-12-14T08:24:16.215Z,97236.89
2022-12-14T08:26:49.194Z,97232.59
2022-12-14T08:29:15.008Z,97229.61
2022-12-14T08:31:42.761Z,97231.22
2022-12-14T08:34:10.488Z,97231.27
2022-12-14T08:36:38.352Z,97221.00
2022-12-14T08:39:09.824Z,97222.84
2022-12-14T08:41:37.685Z,97211.59
2022-12-14T08:44:06.094Z,97204.61
2022-12-14T08:46:37.068Z,97204.17
2022-12-14T08:49:06.925Z,97202.78
2022-12-14T08:51:39.593Z,97193.33
2022-12-14T08:54:07.547Z,97184.84
2022-12-14T08:56:35.838Z,97171.05
2022-12-14T08:59:06.805Z,97163.30
2022-12-14T09:01:35.081Z,97161.84
2022-12-14T09:04:05.890Z,97156.13
2022-12-14T09:06:37.799Z,97152.44
2022-12-14T09:09:13.590Z,97154.61
2022-12-14T09:11:37.198Z,97161.52
2022-12-14T09:14:06.853Z,97160.75
2022-12-14T09:16:35.494Z,97158.38
2022-12-14T09:19:06.219Z,97171.63
2022-12-14T09:21:34.369Z,97183.80
2022-12-14T09:24:02.056Z,97176.66
2022-12-14T09:26:30.216Z,97158.69
2022-12-14T09:28:58.294Z,97161.08
2022-12-14T09:31:27.898Z,97158.15
2022-12-14T09:33:56.280Z,97150.49
2022-12-14T09:36:27.976Z,97139.10
2022-12-14T09:38:57.096Z,97145.72
2022-12-14T09:41:50.966Z,97136.97
2022-12-14T09:44:29.804Z,97135.89
2022-12-14T09:47:29.794Z,97132.44
2022-12-14T09:50:09.068Z,97118.13
2022-12-14T09:52:53.129Z,97107.56
2022-12-14T09:55:28.734Z,97107.03
2022-12-14T09:58:01.970Z,97100.17
2022-12-14T10:00:35.394Z,97094.09
2022-12-14T10:03:38.988Z,97087.50
2022-12-14T10:06:44.165Z,97078.80
2022-12-14T10:09:50.445Z,97079.06
2022-12-14T10:12:36.363Z,97066.86
2022-12-14T10:15:17.202Z,97054.34
2022-12-14T10:18:41.398Z,97043.68
2022-12-14T10:21:14.810Z,97033.33
2022-12-14T10:23:54.075Z,97028.58
2022-12-14T10:26:33.172Z,97020.37
2022-12-14T10:29:12.356Z,97015.05
2022-12-14T10:32:18.962Z,97001.54
2022-12-14T10:34:48.932Z,97011.59
2022-12-14T10:37:37.466Z,97017.15
2022-12-14T10:40:33.595Z,97019.22
2022-12-14T10:43:03.626Z,97013.84
2022-12-14T10:46:10.039Z,97008.69
2022-12-14T10:48:44.940Z,97001.76
2022-12-14T10:51:38.012Z,96993.80
2022-12-14T10:54:33.338Z,96987.09
2022-12-14T10:57:01.403Z,96974.84
2022-12-14T10:59:43.696Z,96970.09
2022-12-14T11:02:14.765Z,96973.47
2022-12-14T11:05:00.879Z,96965.09
2022-12-14T11:07:38.973Z,96962.67
2022-12-14T11:10:29.397Z,96965.98
2022-12-14T11:13:15.088Z,96959.73
2022-12-14T11:15:46.071Z,96964.39
2022-12-14T11:18:25.420Z,96956.05
2022-12-14T11:21:04.683Z,96949.22
2022-12-14T11:23:44.660Z,96945.20
2022-12-14T11:26:25.121Z,96937.46
2022-12-14T11:28:56.203Z,96946.13
2022-12-14T11:31:32.461Z,96936.52
2022-12-14T11:34:03.993Z,96943.86
2022-12-14T11:36:39.197Z,96938.22
2022-12-14T11:39:24.273Z,96935.33
2022-12-14T11:42:04.132Z,96938.00
2022-12-14T11:44:38.335Z,96932.44
2022-12-14T11:47:19.832Z,96929.27
2022-12-14T11:49:57.446Z,96925.60
2022-12-14T11:52:40.279Z,96923.02
2022-12-14T11:55:26.847Z,96915.38
2022-12-14T11:57:55.277Z,96916.23
2022-12-14T12:00:46.611Z,96922.41
2022-12-14T12:03:19.545Z,96921.58
2022-12-14T12:05:48.885Z,96917.02
2022-12-14T12:08:22.489Z,96912.81
2022-12-14T12:10:54.378Z,96903.78
2022-12-14T12:13:28.074Z,96906.43
2022-12-14T12:16:01.771Z,96897.14
2022-12-14T12:18:47.421Z,96904.17
2022-12-14T12:21:26.804Z,96897.09
2022-12-14T12:24:03.622Z,96884.94
2022-12-14T12:27:01.058Z,96879.31
2022-12-14T12:29:40.009Z,96882.22
2022-12-14T12:32:40.649Z,96875.34
2022-12-14T12:35:53.449Z,96866.92
2022-12-14T12:38:54.919Z,96876.28
2022-12-14T12:41:49.799Z,96873.33
2022-12-14T12:44:26.510Z,96868.02
2022-12-14T12:49:33.128Z,96856.38
2022-12-14T12:52:09.629Z,96856.34
2022-12-14T12:54:55.352Z,96855.30
2022-12-14T12:57:27.612Z,96844.96
2022-12-14T12:59:56.953Z,96850.84
2022-12-14T13:02:38.680Z,96850.87
2022-12-14T13:05:45.151Z,96844.25
2022-12-14T13:07:54.690Z,96846.91
2022-12-14T13:10:32.422Z,96844.31
2022-12-14T13:13:11.784Z,96846.20
2022-12-14T13:15:54.355Z,96843.80
2022-12-14T13:18:59.698Z,96844.09
2022-12-14T13:21:35.916Z,96845.97
2022-12-14T13:24:07.037Z,96848.94
2022-12-14T13:27:29.606Z,96848.96
2022-12-14T13:30:23.941Z,96844.50
2022-12-14T13:33:20.074Z,96845.05
2022-12-14T13:36:07.682Z,96849.28
2022-12-14T13:38:44.125Z,96849.59
2022-12-14T13:41:23.200Z,96846.98
2022-12-14T13:44:37.186Z,96839.83
2022-12-14T13:47:07.430Z,96853.36
2022-12-14T13:49:35.710Z,96854.45
2022-12-14T13:52:05.910Z,96861.89
2022-12-14T13:54:41.607Z,96860.61
2022-12-14T13:57:18.441Z,96856.42
2022-12-14T13:59:54.290Z,96852.80
2022-12-14T14:02:37.036Z,96853.66
2022-12-14T14:05:25.815Z,96852.09
2022-12-14T14:08:39.205Z,96849.50
2022-12-14T14:11:39.960Z,96843.72
2022-12-14T14:14:22.660Z,96850.63
2022-12-14T14:16:57.479Z,96847.23
2022-12-14T14:19:28.068Z,96843.81
2022-12-14T14:22:28.280Z,96831.66
2022-12-14T14:25:08.953Z,96829.05
2022-12-14T14:27:41.898Z,96825.38
2022-12-14T14:30:35.652Z,96822.48
2022-12-14T14:33:43.212Z,96824.59
2022-12-14T14:35:38.111Z,96818.77
2022-12-14T14:38:29.217Z,96816.66
2022-12-14T14:41:19.059Z,96808.48
2022-12-14T14:43:49.546Z,96809.30
2022-12-14T14:46:23.154Z,96809.30
2022-12-14T14:48:58.296Z,96795.83
2022-12-14T14:51:30.280Z,96784.72
2022-12-14T14:55:11.118Z,96783.39
2022-12-14T14:56:53.508Z,96785.00
2022-12-14T14:59:40.593Z,96773.89
2022-12-14T15:02:31.169Z,96773.89
2022-12-14T15:05:24.842Z,96764.63
2022-12-14T15:07:32.510Z,96764.35
2022-12-14T15:10:08.571Z,96764.10
2022-12-14T15:12:53.512Z,96762.52
2022-12-14T15:15:37.472Z,96765.67
2022-12-14T15:18:24.129Z,96761.20
2022-12-14T15:21:11.631Z,96747.16
2022-12-14T15:23:52.605Z,96755.91
2022-12-14T15:26:28.526Z,96748.23
2022-12-14T15:29:00.029Z,96744.02
2022-12-14T15:31:37.816Z,96743.23
2022-12-14T15:34:06.349Z,96739.80
2022-12-14T15:36:39.618Z,96737.95
2022-12-14T15:39:27.893Z,96728.70
2022-12-14T15:42:12.880Z,96731.87
2022-12-14T15:44:51.074Z,96727.38
2022-12-14T15:47:27.120Z,96726.88
2022-12-14T15:50:15.781Z,96727.38
2022-12-14T15:52:45.792Z,96719.98
2022-12-14T15:55:36.922Z,96714.98
2022-12-14T15:58:17.777Z,96709.94
2022-12-14T16:00:51.066Z,96706.22
2022-12-14T16:03:25.096Z,96704.36
2022-12-14T16:05:54.877Z,96696.44
2022-12-14T16:08:24.526Z,96700.94
2022-12-14T16:10:56.220Z,96695.65
2022-12-14T16:13:32.708Z,96696.19
2022-12-14T16:16:11.138Z,96689.03
2022-12-14T16:18:51.240Z,96693.00
2022-12-14T16:21:35.382Z,96689.31
2022-12-14T16:24:25.686Z,96691.14
2022-12-14T16:27:01.974Z,96692.46
2022-12-14T16:29:34.110Z,96690.06
2022-12-14T16:32:14.875Z,96685.31
2022-12-14T16:34:58.550Z,96688.75
2022-12-14T16:37:32.613Z,96691.13
2022-12-14T16:39:56.143Z,96689.56
2022-12-14T16:42:26.864Z,96687.95
2022-12-14T16:44:55.029Z,96686.64
2022-12-14T16:47:37.184Z,96690.35
2022-12-14T16:50:55.020Z,96699.86
2022-12-14T16:53:25.275Z,96686.48
2022-12-14T16:56:15.306Z,96716.26
2022-12-14T16:58:54.744Z,96722.62
2022-12-14T17:01:26.080Z,96717.33
2022-12-14T17:04:02.103Z,96718.11
2022-12-14T17:06:39.427Z,96716.01
2022-12-14T17:09:20.166Z,96719.97
2022-12-14T17:12:01.829Z,96717.83
2022-12-14T17:14:32.211Z,96718.65
2022-12-14T17:17:07.142Z,96716.25
2022-12-14T17:19:39.302Z,96710.67
2022-12-14T17:22:21.748Z,96713.85
2022-12-14T17:24:51.768Z,96717.81
2022-12-14T17:27:24.496Z,96684.58
2022-12-14T17:29:58.442Z,96712.77
2022-12-14T17:32:30.453Z,96705.87
2022-12-14T17:35:08.059Z,96706.12
2022-12-14T17:37:38.978Z,96703.47
2022-12-14T17:40:11.653Z,96713.25
2022-12-14T17:42:40.944Z,96713.21
2022-12-14T17:45:16.995Z,96717.42
2022-12-14T17:47:45.618Z,96716.87
2022-12-14T17:50:15.136Z,96709.22
2022-12-14T17:52:43.651Z,96713.94
2022-12-14T17:55:24.542Z,96718.68
2022-12-14T17:57:52.887Z,96708.63
2022-12-14T18:00:43.808Z,96708.61
2022-12-14T18:03:15.371Z,96709.11
2022-12-14T18:05:49.178Z,96707.53
2022-12-14T18:08:19.800Z,96703.27
2022-12-14T18:11:00.659Z,96699.83
2022-12-14T18:13:31.188Z,96691.35
2022-12-14T18:16:02.348Z,96693.17
2022-12-14T18:18:30.750Z,96683.91
2022-12-14T18:21:02.604Z,96689.48
2022-12-14T18:23:36.256Z,96697.42
2022-12-14T18:26:04.832Z,96693.70
2022-12-14T18:28:36.323Z,96684.73
2022-12-14T18:31:08.437Z,96679.44
2022-12-14T18:33:40.817Z,96672.53
2022-12-14T18:36:12.299Z,96672.77
2022-12-14T18:38:41.132Z,96674.09
2022-12-14T18:41:11.317Z,96671.73
2022-12-14T18:43:43.645Z,96669.87
2022-12-14T18:46:09.401Z,96660.61
2022-12-14T18:48:38.124Z,96662.72
2022-12-14T18:51:06.977Z,96652.66
2022-12-14T18:53:35.169Z,96658.22
2022-12-14T18:56:07.265Z,96654.30
2022-12-14T18:58:35.133Z,96657.49
2022-12-14T19:01:02.763Z,96654.03
2022-12-14T19:03:32.542Z,96647.16
2022-12-14T19:08:42.620Z,96629.98
2022-12-14T19:11:14.668Z,96631.30
2022-12-14T19:13:46.239Z,96635.80
2022-12-14T19:16:17.616Z,96628.94
2022-12-14T19:18:45.102Z,96624.14
2022-12-14T19:21:12.794Z,96621.48
2022-12-14T19:23:40.317Z,96609.56
2022-12-14T19:26:07.706Z,96609.55
2022-12-14T19:28:35.497Z,96567.11
2022-12-14T19:31:03.581Z,96598.67
2022-12-14T19:33:31.749Z,96600.52
2022-12-14T19:35:59.723Z,96593.91
2022-12-14T19:38:28.022Z,96596.80
2022-12-14T19:41:04.488Z,96593.61
2022-12-14T19:43:32.854Z,96586.45
2022-12-14T19:46:07.764Z,96585.95
2022-12-14T19:48:35.766Z,96581.94
2022-12-14T19:51:10.966Z,96584.31
2022-12-14T19:53:40.197Z,96582.99
2022-12-14T19:56:12.881Z,96592.50
2022-12-14T19:58:40.755Z,96595.15
2022-12-14T20:01:12.285Z,96597.78
2022-12-14T20:03:41.097Z,96591.70
2022-12-14T20:06:11.025Z,96582.69
2022-12-14T20:08:38.812Z,96578.71
2022-12-14T20:11:10.730Z,96576.30
2022-12-14T20:13:40.493Z,96572.56
2022-12-14T20:16:12.461Z,96569.91
2022-12-14T20:18:40.423Z,96560.34
2022-12-14T20:21:10.336Z,96539.14
2022-12-14T20:23:39.217Z,96539.39
2022-12-14T20:26:15.158Z,96532.75
2022-12-14T20:28:45.342Z,96536.19
2022-12-14T20:31:16.683Z,96529.30
2022-12-14T20:33:45.225Z,96520.25
2022-12-14T20:36:13.256Z,96517.06
2022-12-14T20:38:41.017Z,96511.23
2022-12-14T20:41:13.764Z,96506.96
2022-12-14T20:43:43.642Z,96510.42
2022-12-14T20:46:31.895Z,96510.66
2022-12-14T20:49:03.588Z,96518.05
2022-12-14T20:51:38.018Z,96498.09
2022-12-14T20:54:10.962Z,96507.70
2022-12-14T20:56:40.028Z,96501.86
2022-12-14T20:59:10.588Z,96508.22
2022-12-14T21:01:50.119Z,96496.55
2022-12-14T21:04:16.979Z,96493.88
2022-12-14T21:06:50.667Z,96493.33
2022-12-14T21:09:19.252Z,96487.98
2022-12-14T21:12:09.747Z,96474.49
2022-12-14T21:14:46.132Z,96476.88
2022-12-14T21:17:18.149Z,96472.90
2022-12-14T21:19:47.102Z,96459.38
2022-12-14T21:22:25.102Z,96461.25
2022-12-14T21:25:03.033Z,96461.55
2022-12-14T21:27:27.024Z,96464.73
2022-12-14T21:29:55.550Z,96463.14
2022-12-14T21:32:23.988Z,96461.27
2022-12-14T21:34:52.173Z,96466.57
2022-12-14T21:37:21.466Z,96466.30
2022-12-14T21:39:55.079Z,96468.66
2022-12-14T21:42:23.179Z,96464.68
2022-12-14T21:44:53.563Z,96464.66
2022-12-14T21:47:25.811Z,96464.95
2022-12-14T21:50:05.143Z,96470.20
2022-12-14T21:52:33.549Z,96460.66
2022-12-14T21:55:03.257Z,96466.73
2022-12-14T21:57:50.843Z,96461.98
2022-12-14T22:00:19.802Z,96457.22
2022-12-14T22:02:47.933Z,96460.11
2022-12-14T22:05:17.010Z,96458.25
2022-12-14T22:07:46.876Z,96450.84
2022-12-14T22:10:17.657Z,96448.44
2022-12-14T22:12:45.026Z,96443.14
2022-12-14T22:15:12.902Z,96442.09
2022-12-14T22:17:40.730Z,96445.52
2022-12-14T22:20:10.487Z,96448.95
2022-12-14T22:22:41.614Z,96455.55
2022-12-14T22:25:12.374Z,96449.66
2022-12-14T22:27:40.510Z,96445.41
2022-12-14T22:30:11.676Z,96441.91
2022-12-14T22:32:41.666Z,96440.02
2022-12-14T22:35:10.318Z,96436.56
2022-12-14T22:37:38.394Z,96435.72
2022-12-14T22:40:08.579Z,96437.31
2022-12-14T22:42:36.432Z,96437.02
2022-12-14T22:45:05.829Z,96444.15
2022-12-14T22:47:34.300Z,96447.04
2022-12-14T22:50:02.607Z,96444.91
2022-12-14T22:52:35.878Z,96443.03
2022-12-14T22:55:05.112Z,96447.01
2022-12-14T22:57:47.599Z,96459.69
2022-12-14T23:00:16.483Z,96466.01
2022-12-14T23:02:48.085Z,96460.16
2022-12-14T23:05:17.576Z,96456.47
2022-12-14T23:07:45.303Z,96451.64
2022-12-14T23:10:31.409Z,96449.78
2022-12-14T23:13:17.391Z,96461.43
2022-12-14T23:16:04.759Z,96473.59
2022-12-14T23:18:50.788Z,96473.59
2022-12-14T23:21:37.219Z,96478.11
2022-12-14T23:24:25.256Z,96483.66
2022-12-14T23:27:14.263Z,96482.33
2022-12-14T23:30:00.134Z,96474.38
2022-12-14T23:32:46.312Z,96471.73
2022-12-14T23:35:32.586Z,96481.80
2022-12-14T23:38:26.719Z,96475.47
2022-12-14T23:41:20.765Z,96477.03
2022-12-14T23:44:08.341Z,96480.22
2022-12-14T23:46:54.629Z,96477.27
2022-12-14T23:49:41.422Z,96475.95
2022-12-14T23:52:27.568Z,96476.48
2022-12-14T23:55:13.517Z,96469.08
2022-12-14T23:57:59.668Z,96470.41
